createdAt,value
2024-04-23T00:00:54.885Z,95121.72
2024-04-23T00:03:57.361Z,95134.75
2024-04-23T00:07:01.984Z,95128.47
2024-04-23T00:10:04.648Z,95131.69
2024-04-23T00:13:07.091Z,95124.00
2024-04-23T00:16:09.594Z,95124.00
2024-04-23T00:19:12.089Z,95122.97
2024-04-23T00:22:14.477Z,95116.19
2024-04-23T00:25:16.948Z,95120.84
2024-04-23T00:28:19.479Z,95102.47
2024-04-23T00:31:23.771Z,95103.19
2024-04-23T00:34:26.442Z,95086.00
2024-04-23T00:37:28.932Z,95091.78
2024-04-23T00:40:32.382Z,95094.97
2024-04-23T00:43:34.966Z,95096.38
2024-04-23T00:46:40.221Z,95091.41
2024-04-23T00:49:43.054Z,95109.66
2024-04-23T00:52:45.831Z,95098.78
2024-04-23T00:55:48.385Z,95071.91
2024-04-23T00:58:50.915Z,95085.28
2024-04-23T01:01:54.430Z,95083.63
2024-04-23T01:04:57.136Z,95083.84
2024-04-23T01:07:59.690Z,95071.41
2024-04-23T01:11:03.802Z,95077.81
2024-04-23T01:14:07.003Z,95077.47
2024-04-23T01:17:11.371Z,95069.28
2024-04-23T01:20:14.797Z,95078.66
2024-04-23T01:23:23.516Z,95071.53
2024-04-23T01:26:27.205Z,95069.63
2024-04-23T01:29:35.939Z,95038.03
2024-04-23T01:32:40.941Z,95058.53
2024-04-23T01:35:44.026Z,95048.47
2024-04-23T01:38:47.968Z,95066.72
2024-04-23T01:41:51.016Z,95042.44
2024-04-23T01:44:54.901Z,95052.75
2024-04-23T01:47:57.914Z,95041.75
2024-04-23T01:51:00.542Z,95019.59
2024-04-23T01:54:03.294Z,95037.97
2024-04-23T01:57:09.065Z,95020.19
2024-04-23T02:00:16.537Z,95056.53
2024-04-23T02:03:21.747Z,95035.50
2024-04-23T02:06:29.103Z,95019.03
2024-04-23T02:09:32.629Z,95018.31
2024-04-23T02:12:37.773Z,95003.63
2024-04-23T02:15:40.465Z,95004.34
2024-04-23T02:18:43.118Z,95040.09
2024-04-23T02:21:45.595Z,95033.22
2024-04-23T02:24:48.111Z,95022.94
2024-04-23T02:27:50.857Z,95032.88
2024-04-23T02:30:53.404Z,95037.50
2024-04-23T02:33:55.840Z,95029.53
2024-04-23T02:36:58.310Z,95033.56
2024-04-23T02:40:03.537Z,95018.31
2024-04-23T02:43:07.795Z,95019.13
2024-04-23T02:46:10.279Z,95021.63
2024-04-23T02:49:12.932Z,95019.28
2024-04-23T02:52:15.350Z,95024.00
2024-04-23T02:55:17.763Z,95010.50
2024-04-23T02:58:20.190Z,95024.59
2024-04-23T03:01:22.689Z,95014.28
2024-04-23T03:04:25.309Z,95000.31
2024-04-23T03:07:27.722Z,95008.94
2024-04-23T03:10:30.243Z,95017.81
2024-04-23T03:13:32.760Z,95014.63
2024-04-23T03:16:36.803Z,95013.91
2024-04-23T03:19:39.331Z,95024.19
2024-04-23T03:22:41.882Z,95020.28
2024-04-23T03:25:44.375Z,95015.22
2024-04-23T03:28:46.867Z,95015.91
2024-04-23T03:32:00.631Z,94999.81
2024-04-23T03:35:03.322Z,95004.41
2024-04-23T03:38:06.925Z,95016.72
2024-04-23T03:41:11.749Z,94998.59
2024-04-23T03:44:14.253Z,94992.41
2024-04-23T03:47:16.722Z,94994.31
2024-04-23T03:50:19.209Z,94982.38
2024-04-23T03:53:21.619Z,94975.84
2024-04-23T03:56:24.184Z,94972.41
2024-04-23T03:59:29.495Z,94957.22
2024-04-23T04:02:50.945Z,94970.88
2024-04-23T04:06:05.620Z,94967.09
2024-04-23T04:09:08.428Z,94962.34
2024-04-23T04:12:10.888Z,94968.47
2024-04-23T04:15:13.464Z,94961.25
2024-04-23T04:18:16.004Z,94969.06
2024-04-23T04:21:18.475Z,94966.09
2024-04-23T04:24:20.858Z,94956.19
2024-04-23T04:27:23.416Z,94956.56
2024-04-23T04:30:25.853Z,94945.31
2024-04-23T04:33:28.367Z,94939.41
2024-04-23T04:36:30.877Z,94956.31
2024-04-23T04:39:38.572Z,94940.19
2024-04-23T04:42:41.120Z,94956.19
2024-04-23T04:45:46.745Z,94955.31
2024-04-23T04:48:49.291Z,94952.63
2024-04-23T04:51:51.833Z,94941.94
2024-04-23T04:54:54.403Z,94938.72
2024-04-23T04:57:56.908Z,94912.69
2024-04-23T05:00:59.523Z,94940.50
2024-04-23T05:04:04.462Z,94936.38
2024-04-23T05:07:07.042Z,94910.41
2024-04-23T05:10:09.577Z,94916.94
2024-04-23T05:13:32.352Z,94929.34
2024-04-23T05:16:35.049Z,94900.38
2024-04-23T05:19:37.664Z,94901.47
2024-04-23T05:22:40.294Z,94917.34
2024-04-23T05:25:43.114Z,94931.75
2024-04-23T05:28:45.790Z,94899.81
2024-04-23T05:32:07.356Z,94929.44
2024-04-23T05:35:09.934Z,94931.53
2024-04-23T05:38:15.133Z,94941.81
2024-04-23T05:41:19.302Z,94923.91
2024-04-23T05:44:23.588Z,94915.22
2024-04-23T05:47:26.884Z,94914.00
2024-04-23T05:51:07.315Z,94926.50
2024-04-23T05:54:47.694Z,94923.50
2024-04-23T05:57:52.714Z,94895.28
2024-04-23T06:01:00.354Z,94876.00
2024-04-23T06:04:05.588Z,94901.19
2024-04-23T06:07:09.267Z,94889.34
2024-04-23T06:10:13.512Z,94902.41
2024-04-23T06:13:16.994Z,94899.72
2024-04-23T06:16:19.923Z,94875.84
2024-04-23T06:19:28.226Z,94900.81
2024-04-23T06:22:40.239Z,94898.19
2024-04-23T06:25:43.021Z,94867.78
2024-04-23T06:28:45.624Z,94884.28
2024-04-23T06:31:50.167Z,94892.38
2024-04-23T06:34:52.884Z,94877.47
2024-04-23T06:37:55.367Z,94885.19
2024-04-23T06:41:03.129Z,94862.63
2024-04-23T06:44:05.674Z,94879.38
2024-04-23T06:47:08.197Z,94871.66
2024-04-23T06:50:10.719Z,94877.41
2024-04-23T06:53:13.465Z,94879.56
2024-04-23T06:56:16.000Z,94889.72
2024-04-23T06:59:18.656Z,94877.69
2024-04-23T07:02:21.186Z,94888.66
2024-04-23T07:05:23.775Z,94895.66
2024-04-23T07:08:26.299Z,94869.03
2024-04-23T07:11:28.893Z,94864.41
2024-04-23T07:14:31.531Z,94863.50
2024-04-23T07:17:34.157Z,94847.19
2024-04-23T07:20:37.387Z,94860.72
2024-04-23T07:23:40.572Z,94852.53
2024-04-23T07:26:43.765Z,94851.00
2024-04-23T07:29:46.230Z,94852.94
2024-04-23T07:32:53.896Z,94847.28
2024-04-23T07:35:58.596Z,94855.38
2024-04-23T07:39:01.076Z,94836.44
2024-04-23T07:42:03.667Z,94833.84
2024-04-23T07:45:07.230Z,94837.13
2024-04-23T07:48:10.092Z,94839.03
2024-04-23T07:51:12.637Z,94834.13
2024-04-23T07:54:15.413Z,94833.91
2024-04-23T07:57:19.398Z,94828.72
2024-04-23T08:00:24.493Z,94833.31
2024-04-23T08:03:27.062Z,94845.63
2024-04-23T08:06:29.580Z,94824.69
2024-04-23T08:09:32.073Z,94817.03
2024-04-23T08:12:34.571Z,94820.56
2024-04-23T08:15:37.091Z,94815.09
2024-04-23T08:18:39.882Z,94797.63
2024-04-23T08:21:43.529Z,94806.78
2024-04-23T08:24:46.640Z,94804.63
2024-04-23T08:28:04.126Z,94788.16
2024-04-23T08:31:06.590Z,94795.91
2024-04-23T08:34:09.082Z,94793.09
2024-04-23T08:37:11.593Z,94791.19
2024-04-23T08:40:14.178Z,94805.63
2024-04-23T08:43:26.458Z,94805.34
2024-04-23T08:46:29.199Z,94813.63
2024-04-23T08:49:35.379Z,94789.25
2024-04-23T09:01:14.536Z,94784.72
2024-04-23T09:04:56.141Z,94787.81
2024-04-23T09:08:22.350Z,94765.72
2024-04-23T09:12:24.175Z,94764.44
2024-04-23T09:16:27.182Z,94764.41
2024-04-23T09:19:39.424Z,94764.88
2024-04-23T09:22:57.591Z,94752.75
2024-04-23T09:26:18.408Z,94726.56
2024-04-23T09:29:33.518Z,94738.38
2024-04-23T09:32:50.175Z,94722.94
2024-04-23T09:36:15.429Z,94729.44
2024-04-23T09:39:22.741Z,94719.50
2024-04-23T09:42:31.195Z,94721.72
2024-04-23T09:45:36.539Z,94699.22
2024-04-23T09:48:46.416Z,94705.72
2024-04-23T09:51:52.441Z,94695.25
2024-04-23T09:54:59.666Z,94687.25
2024-04-23T09:58:04.854Z,94681.88
2024-04-23T10:01:10.188Z,94673.56
2024-04-23T10:04:22.435Z,94698.97
2024-04-23T10:07:30.128Z,94663.09
2024-04-23T10:10:49.158Z,94663.41
2024-04-23T10:13:59.580Z,94648.38
2024-04-23T10:17:18.234Z,94616.13
2024-04-23T10:20:25.230Z,94641.88
2024-04-23T10:23:32.756Z,94637.56
2024-04-23T10:26:47.053Z,94631.66
2024-04-23T10:29:50.912Z,94628.13
2024-04-23T10:33:00.564Z,94626.16
2024-04-23T10:36:03.488Z,94622.78
2024-04-23T10:39:07.573Z,94619.53
2024-04-23T10:42:10.403Z,94593.47
2024-04-23T10:45:15.590Z,94606.84
2024-04-23T10:48:28.738Z,94600.28
2024-04-23T10:51:37.543Z,94598.06
2024-04-23T10:54:48.827Z,94589.69
2024-04-23T10:57:54.726Z,94578.38
2024-04-23T11:01:04.311Z,94586.50
2024-04-23T11:04:09.674Z,94596.03
2024-04-23T11:07:25.687Z,94587.06
2024-04-23T11:10:31.273Z,94584.88
2024-04-23T11:13:44.405Z,94583.38
2024-04-23T11:21:09.000Z,94580.91
2024-04-23T11:24:15.872Z,94586.94
2024-04-23T11:27:22.910Z,94568.28
2024-04-23T11:30:29.275Z,94536.97
2024-04-23T11:33:44.653Z,94532.66
2024-04-23T11:37:00.543Z,94516.50
2024-04-23T11:40:09.675Z,94537.75
2024-04-23T11:43:20.603Z,94563.63
2024-04-23T11:46:40.948Z,94529.38
2024-04-23T11:50:22.657Z,94511.47
2024-04-23T11:54:16.118Z,94520.34
2024-04-23T11:57:54.362Z,94550.44
2024-04-23T12:00:57.863Z,94558.94
2024-04-23T12:04:01.084Z,94548.25
2024-04-23T12:07:17.618Z,94583.13
2024-04-23T12:10:34.714Z,94577.63
2024-04-23T12:13:56.702Z,94571.16
2024-04-23T12:17:09.942Z,94574.59
2024-04-23T12:20:24.404Z,94526.56
2024-04-23T12:24:07.165Z,94507.31
2024-04-23T12:27:17.704Z,94536.81
2024-04-23T12:30:29.471Z,94522.22
2024-04-23T12:34:00.541Z,94458.47
2024-04-23T12:37:10.562Z,94483.38
2024-04-23T12:40:22.119Z,94467.66
2024-04-23T12:43:33.884Z,94453.16
2024-04-23T12:46:51.196Z,94490.94
2024-04-23T12:49:58.220Z,94475.81
2024-04-23T12:53:16.077Z,94484.81
2024-04-23T12:56:39.735Z,94467.44
2024-04-23T13:00:03.351Z,94475.19
2024-04-23T13:03:29.909Z,94456.09
2024-04-23T13:06:35.607Z,94474.75
2024-04-23T13:09:43.131Z,94452.88
2024-04-23T13:12:48.083Z,94456.34
2024-04-23T13:15:55.346Z,94454.81
2024-04-23T13:18:59.238Z,94425.25
2024-04-23T13:22:05.023Z,94452.94
2024-04-23T13:25:11.068Z,94435.41
2024-04-23T13:28:15.445Z,94448.78
2024-04-23T13:31:19.861Z,94436.28
2024-04-23T13:34:22.854Z,94442.59
2024-04-23T13:37:30.172Z,94417.78
2024-04-23T13:40:38.250Z,94420.41
2024-04-23T13:43:50.185Z,94406.88
2024-04-23T13:46:58.060Z,94402.16
2024-04-23T13:50:00.757Z,94417.72
2024-04-23T13:53:03.478Z,94385.97
2024-04-23T13:56:12.927Z,94400.69
2024-04-23T13:59:21.891Z,94393.47
2024-04-23T14:02:27.224Z,94379.66
2024-04-23T14:05:32.862Z,94372.06
2024-04-23T14:08:36.043Z,94384.34
2024-04-23T14:11:47.115Z,94359.81
2024-04-23T14:14:59.744Z,94358.72
2024-04-23T14:18:05.308Z,94374.94
2024-04-23T14:21:08.374Z,94314.28
2024-04-23T14:24:56.450Z,94344.94
2024-04-23T14:28:06.854Z,94369.31
2024-04-23T14:31:27.365Z,94365.63
2024-04-23T14:34:30.159Z,94340.47
2024-04-23T14:37:38.785Z,94337.41
2024-04-23T14:41:04.615Z,94344.31
2024-04-23T14:44:21.611Z,94302.47
2024-04-23T14:47:34.502Z,94316.72
2024-04-23T14:50:40.329Z,94294.13
2024-04-23T14:53:53.084Z,94308.94
2024-04-23T14:57:18.878Z,94312.91
2024-04-23T15:00:27.233Z,94314.41
2024-04-23T15:03:32.781Z,94316.56
2024-04-23T15:06:35.366Z,94304.91
2024-04-23T15:09:37.823Z,94306.13
2024-04-23T15:12:40.345Z,94307.38
2024-04-23T15:15:42.821Z,94292.59
2024-04-23T15:18:45.388Z,94293.59
2024-04-23T15:21:47.927Z,94273.47
2024-04-23T15:24:51.168Z,94259.63
2024-04-23T15:27:54.087Z,94269.84
2024-04-23T15:31:06.875Z,94264.53
2024-04-23T15:34:09.884Z,94269.84
2024-04-23T15:37:12.384Z,94269.81
2024-04-23T15:40:14.836Z,94249.84
2024-04-23T15:43:17.314Z,94251.06
2024-04-23T15:46:20.478Z,94244.09
2024-04-23T15:49:24.137Z,94240.84
2024-04-23T15:52:26.569Z,94241.88
2024-04-23T15:55:28.995Z,94244.94
2024-04-23T15:58:32.070Z,94241.25
2024-04-23T16:01:36.131Z,94232.47
2024-04-23T16:04:39.409Z,94233.06
2024-04-23T16:07:42.495Z,94216.78
2024-04-23T16:10:45.616Z,94209.84
2024-04-23T16:13:48.650Z,94209.41
2024-04-23T16:16:51.629Z,94194.97
2024-04-23T16:19:54.205Z,94187.75
2024-04-23T16:22:59.328Z,94200.63
2024-04-23T16:26:08.380Z,94194.28
2024-04-23T16:29:11.654Z,94202.53
2024-04-23T16:32:14.176Z,94197.44
2024-04-23T16:35:17.196Z,94190.66
2024-04-23T16:38:20.241Z,94180.00
2024-04-23T16:41:23.084Z,94186.09
2024-04-23T16:44:25.589Z,94182.06
2024-04-23T16:47:29.856Z,94177.13
2024-04-23T16:50:34.700Z,94173.63
2024-04-23T16:53:40.595Z,94171.19
2024-04-23T16:56:43.113Z,94167.09
2024-04-23T16:59:46.337Z,94157.13
2024-04-23T17:02:48.796Z,94151.75
2024-04-23T17:05:51.435Z,94147.47
2024-04-23T17:08:53.948Z,94137.84
2024-04-23T17:11:56.446Z,94133.16
2024-04-23T17:14:59.354Z,94136.03
2024-04-23T17:18:02.051Z,94135.19
2024-04-23T17:21:14.989Z,94125.00
2024-04-23T17:24:17.591Z,94121.94
2024-04-23T17:27:20.128Z,94123.56
2024-04-23T17:30:23.301Z,94122.94
2024-04-23T17:33:27.019Z,94127.66
2024-04-23T17:36:33.482Z,94121.16
2024-04-23T17:39:38.705Z,94123.63
2024-04-23T17:42:44.697Z,94133.56
2024-04-23T17:45:48.720Z,94134.97
2024-04-23T17:48:54.415Z,94129.91
2024-04-23T17:51:57.896Z,94117.03
2024-04-23T17:55:01.352Z,94120.69
2024-04-23T17:58:08.116Z,94112.38
2024-04-23T18:01:14.177Z,94105.25
2024-04-23T18:04:19.723Z,94116.91
2024-04-23T18:07:29.675Z,94125.59
2024-04-23T18:10:37.028Z,94115.00
2024-04-23T18:13:41.182Z,94115.22
2024-04-23T18:16:44.328Z,94111.91
2024-04-23T18:19:53.117Z,94109.66
2024-04-23T18:23:06.805Z,94116.34
2024-04-23T18:26:12.710Z,94117.16
2024-04-23T18:29:18.209Z,94113.19
2024-04-23T18:32:26.559Z,94095.84
2024-04-23T18:35:30.844Z,94094.56
2024-04-23T18:38:43.110Z,94106.34
2024-04-23T18:41:46.900Z,94101.94
2024-04-23T18:44:52.259Z,94095.66
2024-04-23T18:48:00.137Z,94087.38
2024-04-23T18:51:12.668Z,94093.47
2024-04-23T18:54:19.371Z,94097.72
2024-04-23T18:57:29.389Z,94088.13
2024-04-23T19:00:41.572Z,94086.88
2024-04-23T19:03:52.956Z,94089.78
2024-04-23T19:06:59.465Z,94079.44
2024-04-23T19:10:03.339Z,94068.81
2024-04-23T19:13:12.466Z,94061.59
2024-04-23T19:16:15.934Z,94062.03
2024-04-23T19:19:20.244Z,94059.28
2024-04-23T19:22:26.619Z,94061.03
2024-04-23T19:25:33.864Z,94065.59
2024-04-23T19:28:40.272Z,94046.97
2024-04-23T19:31:43.619Z,94052.22
2024-04-23T19:34:48.107Z,94039.59
2024-04-23T19:37:59.325Z,94036.13
2024-04-23T19:41:18.959Z,94036.19
2024-04-23T19:44:31.219Z,94027.53
2024-04-23T19:47:46.123Z,94016.75
2024-04-23T19:50:58.398Z,94020.88
2024-04-23T19:54:03.957Z,94007.44
2024-04-23T19:57:10.184Z,94024.34
2024-04-23T20:00:20.690Z,94010.31
2024-04-23T20:03:36.539Z,93995.09
2024-04-23T20:06:42.225Z,93996.91
2024-04-23T20:09:53.622Z,93998.41
2024-04-23T20:12:58.226Z,93991.50
2024-04-23T20:16:01.991Z,93986.34
2024-04-23T20:19:05.122Z,93973.13
2024-04-23T20:22:08.931Z,93971.69
2024-04-23T20:25:14.413Z,93970.28
2024-04-23T20:28:17.245Z,93976.38
2024-04-23T20:31:36.666Z,93950.88
2024-04-23T20:34:45.025Z,93966.00
2024-04-23T20:37:49.126Z,93955.84
2024-04-23T20:41:07.145Z,93963.94
2024-04-23T20:45:04.162Z,93988.28
2024-04-23T20:48:08.130Z,93949.00
2024-04-23T20:51:13.165Z,93971.78
2024-04-23T20:54:16.362Z,93948.63
2024-04-23T20:57:21.207Z,93955.72
2024-04-23T21:00:23.812Z,93950.91
2024-04-23T21:03:26.411Z,93954.28
2024-04-23T21:06:29.212Z,93974.66
2024-04-23T21:09:31.628Z,93977.09
2024-04-23T21:12:34.137Z,93959.94
2024-04-23T21:15:37.664Z,93964.41
2024-04-23T21:18:41.902Z,93967.09
2024-04-23T21:21:44.367Z,93963.41
2024-04-23T21:24:46.837Z,93961.69
2024-04-23T21:27:49.306Z,93957.13
2024-04-23T21:30:59.587Z,93954.63
2024-04-23T21:34:02.076Z,93951.78
2024-04-23T21:37:04.527Z,93947.91
2024-04-23T21:40:07.479Z,93945.41
2024-04-23T21:43:10.063Z,93940.97
2024-04-23T21:46:15.930Z,93951.41
2024-04-23T21:49:18.447Z,93937.25
2024-04-23T21:52:31.287Z,93931.63
2024-04-23T21:55:42.118Z,93926.56
2024-04-23T21:58:44.593Z,93922.34
2024-04-23T22:01:47.147Z,93904.69
2024-04-23T22:04:49.715Z,93923.38
2024-04-23T22:07:52.210Z,93918.13
2024-04-23T22:10:54.894Z,93907.69
2024-04-23T22:13:57.500Z,93907.00
2024-04-23T22:17:00.034Z,93901.88
2024-04-23T22:20:02.676Z,93905.63
2024-04-23T22:23:05.303Z,93902.81
2024-04-23T22:26:07.885Z,93907.34
2024-04-23T22:29:10.380Z,93893.38
2024-04-23T22:32:12.898Z,93894.28
2024-04-23T22:35:15.603Z,93895.28
2024-04-23T22:38:18.121Z,93879.03
2024-04-23T22:41:20.810Z,93887.75
2024-04-23T22:44:23.443Z,93882.50
2024-04-23T22:47:26.300Z,93868.31
2024-04-23T22:50:28.878Z,93859.13
2024-04-23T22:53:31.621Z,93850.28
2024-04-23T22:56:34.065Z,93853.63
2024-04-23T22:59:36.489Z,93844.09
2024-04-23T23:02:39.013Z,93840.75
2024-04-23T23:05:41.511Z,93840.69
2024-04-23T23:08:43.910Z,93837.38
2024-04-23T23:11:46.412Z,93825.06
2024-04-23T23:14:48.843Z,93821.25
2024-04-23T23:17:51.671Z,93826.13
2024-04-23T23:20:54.848Z,93815.69
2024-04-23T23:23:57.268Z,93810.00
2024-04-23T23:26:59.707Z,93810.97
2024-04-23T23:30:02.184Z,93812.53
2024-04-23T23:33:05.071Z,93807.56
2024-04-23T23:36:07.740Z,93799.41
2024-04-23T23:39:10.109Z,93800.56
2024-04-23T23:42:12.557Z,93794.75
2024-04-23T23:45:14.987Z,93797.59
2024-04-23T23:48:17.666Z,93788.81
2024-04-23T23:51:20.216Z,93789.44
2024-04-23T23:54:22.728Z,93781.63
2024-04-23T23:57:25.130Z,93784.38
